createdAt,value
2019-04-25T00:07:07.747Z,42.6
2019-04-25T00:22:37.359Z,39.7
2019-04-25T00:37:54.392Z,39.1
2019-04-25T00:53:11.624Z,38.4
2019-04-25T01:08:28.139Z,37.8
2019-04-25T01:23:37.572Z,38.2
2019-04-25T01:39:01.494Z,39.1
2019-04-25T01:54:17.937Z,39.8
2019-04-25T02:09:34.267Z,40.6
2019-04-25T02:24:50.424Z,41.4
2019-04-25T02:40:08.742Z,42.4
2019-04-25T02:55:34.208Z,44.1
2019-04-25T03:10:38.335Z,43.2
2019-04-25T03:25:54.147Z,43.2
2019-04-25T03:41:01.185Z,43.8
2019-04-25T03:56:25.210Z,43.2
2019-04-25T04:11:40.656Z,42.2
2019-04-25T04:27:05.631Z,38
2019-04-25T04:42:13.357Z,38.7
2019-04-25T04:57:35.682Z,38.5
2019-04-25T05:12:44.095Z,41
2019-04-25T05:28:05.136Z,39.6
2019-04-25T05:43:16.147Z,31.2
2019-04-25T05:58:28.319Z,27.3
2019-04-25T06:13:46.803Z,26.1
2019-04-25T06:29:03.550Z,22.9
2019-04-25T06:44:18.053Z,21.7
2019-04-25T06:59:41.355Z,20.6
2019-04-25T07:14:54.386Z,22.6
2019-04-25T07:30:01.384Z,20.6
2019-04-25T07:45:30.783Z,19.9
2019-04-25T08:00:46.790Z,19.1
2019-04-25T08:16:05.152Z,16.9
2019-04-25T08:31:13.844Z,15.6
2019-04-25T08:46:48.493Z,14.2
2019-04-25T09:02:01.609Z,14.3
2019-04-25T09:17:20.748Z,12.3
2019-04-25T09:32:24.201Z,13.4
2019-04-25T09:47:57.444Z,12.6
2019-04-25T10:03:20.129Z,10.9
2019-04-25T10:18:43.009Z,10.4
2019-04-25T10:34:03.708Z,10.5
2019-04-25T10:49:08.429Z,10.2
2019-04-25T11:04:42.181Z,8.6
2019-04-25T11:20:07.010Z,7.1
2019-04-25T11:35:29.886Z,6.5
2019-04-25T11:50:55.952Z,6.8
2019-04-25T12:06:16.238Z,4.8
2019-04-25T12:21:29.986Z,5.8
2019-04-25T12:37:04.433Z,6
2019-04-25T12:52:29.436Z,6.2
2019-04-25T13:07:59.786Z,6.7
2019-04-25T13:23:21.198Z,6.5
2019-04-25T13:38:48.124Z,6.5
2019-04-25T13:53:57.372Z,6.2
2019-04-25T14:09:32.494Z,6.3
2019-04-25T14:25:05.462Z,6.4
2019-04-25T14:40:33.425Z,6.2
2019-04-25T14:55:59.228Z,6.4
2019-04-25T15:11:25.447Z,6.8
2019-04-25T15:26:51.442Z,6.8
2019-04-25T15:42:00.305Z,6.8
2019-04-25T15:57:34.818Z,7.3
2019-04-25T16:13:06.677Z,7.8
2019-04-25T16:28:30.528Z,8.1
2019-04-25T16:43:54.741Z,8.6
2019-04-25T16:59:17.613Z,12.5
2019-04-25T17:14:23.918Z,13.5
2019-04-25T17:29:57.209Z,14.9
2019-04-25T17:45:22.646Z,15.9
2019-04-25T18:00:43.730Z,17.2
2019-04-25T18:16:05.472Z,18.1
2019-04-25T18:31:08.533Z,19.1
2019-04-25T18:46:42.484Z,20.6
2019-04-25T19:02:03.668Z,21.6
2019-04-25T19:17:23.039Z,21.6
2019-04-25T19:32:43.156Z,21.8
2019-04-25T19:47:49.508Z,23
2019-04-25T20:03:20.448Z,23.6
2019-04-25T20:18:39.253Z,25.6
2019-04-25T20:34:06.269Z,26.3
2019-04-25T20:49:16.129Z,27.5
2019-04-25T21:04:26.992Z,28.7
2019-04-25T21:19:53.072Z,29.9
2019-04-25T21:35:10.349Z,30.6
2019-04-25T21:50:28.319Z,31.6
2019-04-25T22:05:30.470Z,32.6
2019-04-25T22:21:02.490Z,33
2019-04-25T22:36:20.961Z,34.5
2019-04-25T22:51:38.036Z,35.8
2019-04-25T23:06:54.965Z,36.6
2019-04-25T23:22:05.731Z,36.8
2019-04-25T23:37:29.275Z,37
2019-04-25T23:52:46.710Z,37.2
